createdAt,value
2022-10-09T00:01:21.017Z,99191.56
2022-10-09T00:03:50.278Z,99193.13
2022-10-09T00:06:20.620Z,99182.34
2022-10-09T00:08:47.973Z,99178.56
2022-10-09T00:11:18.597Z,99183.16
2022-10-09T00:13:46.388Z,99178.00
2022-10-09T00:16:14.966Z,99172.72
2022-10-09T00:18:43.285Z,99169.81
2022-10-09T00:21:29.154Z,99169.44
2022-10-09T00:23:59.878Z,99182.31
2022-10-09T00:26:27.345Z,99180.38
2022-10-09T00:28:55.043Z,99180.44
2022-10-09T00:31:22.830Z,99176.41
2022-10-09T00:33:50.496Z,99180.09
2022-10-09T00:36:24.122Z,99174.56
2022-10-09T00:38:51.677Z,99173.09
2022-10-09T00:41:25.671Z,99167.59
2022-10-09T00:43:55.485Z,99173.78
2022-10-09T00:46:46.577Z,99165.34
2022-10-09T00:49:22.445Z,99161.81
2022-10-09T00:51:50.797Z,99161.44
2022-10-09T00:54:21.318Z,99157.72
2022-10-09T00:56:49.365Z,99157.25
2022-10-09T00:59:17.805Z,99166.88
2022-10-09T01:01:45.929Z,99173.22
2022-10-09T01:04:13.340Z,99165.81
2022-10-09T01:06:52.800Z,99159.44
2022-10-09T01:09:39.311Z,99159.03
2022-10-09T01:12:12.950Z,99144.88
2022-10-09T01:14:45.257Z,99142.03
2022-10-09T01:17:24.778Z,99145.78
2022-10-09T01:19:55.073Z,99143.25
2022-10-09T01:22:37.432Z,99143.72
2022-10-09T01:25:33.588Z,99144.75
2022-10-09T01:28:02.279Z,99145.31
2022-10-09T01:30:30.240Z,99145.78
2022-10-09T01:32:58.032Z,99136.84
2022-10-09T01:35:26.014Z,99136.88
2022-10-09T01:37:54.274Z,99129.97
2022-10-09T01:40:22.436Z,99133.75
2022-10-09T01:42:49.944Z,99132.06
2022-10-09T01:45:17.543Z,99128.50
2022-10-09T01:47:44.941Z,99126.00
2022-10-09T01:50:28.020Z,99118.84
2022-10-09T01:52:59.722Z,99119.72
2022-10-09T01:55:38.875Z,99115.84
2022-10-09T01:58:22.483Z,99107.16
2022-10-09T02:01:17.070Z,99105.94
2022-10-09T02:03:48.592Z,99104.25
2022-10-09T02:06:18.145Z,99108.66
2022-10-09T02:08:47.506Z,99105.16
2022-10-09T02:11:15.706Z,99095.19
2022-10-09T02:13:44.511Z,99100.69
2022-10-09T02:16:33.535Z,99091.91
2022-10-09T02:19:45.106Z,99086.81
2022-10-09T02:22:22.512Z,99090.72
2022-10-09T02:24:49.815Z,99088.63
2022-10-09T02:27:17.964Z,99086.97
2022-10-09T02:29:46.062Z,99082.81
2022-10-09T02:32:13.475Z,99085.06
2022-10-09T02:34:41.231Z,99085.91
2022-10-09T02:37:08.837Z,99078.69
2022-10-09T02:39:36.200Z,99072.22
2022-10-09T02:42:04.182Z,99073.59
2022-10-09T02:44:31.569Z,99074.44
2022-10-09T02:46:58.833Z,99074.38
2022-10-09T02:49:26.146Z,99068.22
2022-10-09T02:51:53.451Z,99070.44
2022-10-09T02:54:20.784Z,99072.00
2022-10-09T02:56:48.161Z,99076.22
2022-10-09T02:59:15.495Z,99072.72
2022-10-09T03:01:42.945Z,99064.94
2022-10-09T03:04:10.311Z,99073.31
2022-10-09T03:06:37.629Z,99078.59
2022-10-09T03:09:05.033Z,99067.41
2022-10-09T03:11:32.378Z,99069.63
2022-10-09T03:13:59.729Z,99071.16
2022-10-09T03:16:27.788Z,99074.44
2022-10-09T03:18:55.696Z,99068.91
2022-10-09T03:21:25.718Z,99072.22
2022-10-09T03:23:53.799Z,99071.69
2022-10-09T03:26:23.593Z,99071.59
2022-10-09T03:28:52.356Z,99065.16
2022-10-09T03:31:46.927Z,99065.97
2022-10-09T03:34:10.282Z,99068.06
2022-10-09T03:36:37.731Z,99066.44
2022-10-09T03:39:05.029Z,99070.19
2022-10-09T03:41:32.370Z,99071.97
2022-10-09T03:43:59.655Z,99070.53
2022-10-09T03:46:27.019Z,99069.22
2022-10-09T03:48:54.405Z,99058.81
2022-10-09T03:51:21.684Z,99055.91
2022-10-09T03:53:49.079Z,99060.84
2022-10-09T03:56:16.460Z,99059.53
2022-10-09T03:58:43.851Z,99062.75
2022-10-09T04:01:11.347Z,99068.50
2022-10-09T04:03:38.815Z,99064.16
2022-10-09T04:06:06.402Z,99064.03
2022-10-09T04:08:34.973Z,99063.78
2022-10-09T04:11:03.595Z,99071.94
2022-10-09T04:13:31.052Z,99078.09
2022-10-09T04:15:58.498Z,99076.66
2022-10-09T04:18:25.958Z,99075.63
2022-10-09T04:20:55.043Z,99073.66
2022-10-09T04:23:25.474Z,99070.88
2022-10-09T04:25:58.342Z,99070.91
2022-10-09T04:28:26.661Z,99065.16
2022-10-09T04:30:54.240Z,99071.75
2022-10-09T04:33:21.691Z,99072.16
2022-10-09T04:35:51.703Z,99062.47
2022-10-09T04:38:19.998Z,99064.25
2022-10-09T04:40:57.865Z,99073.53
2022-10-09T04:43:25.224Z,99068.34
2022-10-09T04:45:52.679Z,99068.41
2022-10-09T04:48:20.140Z,99066.25
2022-10-09T04:50:47.641Z,99065.06
2022-10-09T04:53:15.077Z,99062.56
2022-10-09T04:55:43.508Z,99071.25
2022-10-09T04:58:11.627Z,99064.75
2022-10-09T05:00:44.206Z,99062.25
2022-10-09T05:03:12.137Z,99057.69
2022-10-09T05:05:39.522Z,99063.41
2022-10-09T05:08:07.031Z,99062.03
2022-10-09T05:10:34.344Z,99055.81
2022-10-09T05:13:02.019Z,99063.44
2022-10-09T05:15:29.289Z,99056.72
2022-10-09T05:17:56.649Z,99059.81
2022-10-09T05:20:23.956Z,99063.16
2022-10-09T05:22:51.761Z,99064.03
2022-10-09T05:25:19.408Z,99067.25
2022-10-09T05:27:46.831Z,99070.22
2022-10-09T05:30:14.187Z,99064.72
2022-10-09T05:32:41.509Z,99062.88
2022-10-09T05:35:09.021Z,99055.19
2022-10-09T05:37:36.364Z,99053.47
2022-10-09T05:40:03.767Z,99057.22
2022-10-09T05:42:31.118Z,99057.22
2022-10-09T05:44:58.585Z,99057.91
2022-10-09T05:47:25.946Z,99058.56
2022-10-09T05:49:53.217Z,99054.03
2022-10-09T05:52:20.574Z,99060.56
2022-10-09T05:54:47.919Z,99059.34
2022-10-09T05:57:15.180Z,99057.28
2022-10-09T05:59:42.488Z,99055.53
2022-10-09T06:02:09.850Z,99051.56
2022-10-09T06:04:37.229Z,99048.09
2022-10-09T06:07:04.546Z,99051.06
2022-10-09T06:09:31.844Z,99050.97
2022-10-09T06:11:59.270Z,99045.03
2022-10-09T06:14:26.557Z,99043.84
2022-10-09T06:16:53.934Z,99050.78
2022-10-09T06:19:21.452Z,99041.81
2022-10-09T06:21:49.253Z,99035.47
2022-10-09T06:24:29.127Z,99037.41
2022-10-09T06:26:57.800Z,99040.19
2022-10-09T06:29:25.618Z,99040.56
2022-10-09T06:31:53.072Z,99047.84
2022-10-09T06:34:20.617Z,99055.22
2022-10-09T06:36:47.947Z,99054.22
2022-10-09T06:39:15.593Z,99052.22
2022-10-09T06:41:42.956Z,99059.72
2022-10-09T06:44:29.708Z,99057.16
2022-10-09T06:46:57.044Z,99049.78
2022-10-09T06:49:24.378Z,99062.50
2022-10-09T06:51:51.675Z,99064.03
2022-10-09T06:54:18.937Z,99060.31
2022-10-09T06:56:46.349Z,99061.19
2022-10-09T06:59:13.804Z,99055.44
2022-10-09T07:01:41.297Z,99051.25
2022-10-09T07:04:12.568Z,99041.97
2022-10-09T07:06:42.406Z,99043.66
2022-10-09T07:09:12.135Z,99046.66
2022-10-09T07:11:43.066Z,99065.00
2022-10-09T07:14:11.821Z,99063.16
2022-10-09T07:16:45.465Z,99069.16
2022-10-09T07:19:13.986Z,99071.22
2022-10-09T07:21:43.369Z,99069.28
2022-10-09T07:24:11.063Z,99072.00
2022-10-09T07:26:40.941Z,99072.69
2022-10-09T07:29:10.745Z,99070.28
2022-10-09T07:31:38.248Z,99068.25
2022-10-09T07:34:06.312Z,99069.69
2022-10-09T07:36:33.965Z,99066.38
2022-10-09T07:39:01.442Z,99070.19
2022-10-09T07:41:30.070Z,99069.53
2022-10-09T07:43:57.732Z,99072.00
2022-10-09T07:46:30.773Z,99075.38
2022-10-09T07:49:00.540Z,99065.31
2022-10-09T07:51:29.269Z,99058.66
2022-10-09T07:53:57.322Z,99062.63
2022-10-09T07:56:30.233Z,99062.78
2022-10-09T07:59:02.906Z,99058.03
2022-10-09T08:01:31.114Z,99068.53
2022-10-09T08:03:59.212Z,99056.59
2022-10-09T08:06:27.081Z,99049.31
2022-10-09T08:08:55.726Z,99050.41
2022-10-09T08:11:25.329Z,99050.81
2022-10-09T08:13:53.563Z,99052.19
2022-10-09T08:16:22.650Z,99052.13
2022-10-09T08:18:53.494Z,99054.22
2022-10-09T08:21:21.415Z,99057.38
2022-10-09T08:23:51.852Z,99059.84
2022-10-09T08:26:21.370Z,99056.03
2022-10-09T08:28:53.943Z,99049.97
2022-10-09T08:31:21.727Z,99049.97
2022-10-09T08:33:56.270Z,99047.78
2022-10-09T08:36:23.969Z,99036.16
2022-10-09T08:38:51.718Z,99046.94
2022-10-09T08:41:42.161Z,99042.81
2022-10-09T08:44:25.756Z,99037.91
2022-10-09T08:47:05.526Z,99038.63
2022-10-09T08:50:09.021Z,99031.75
2022-10-09T08:52:49.718Z,99034.31
2022-10-09T08:55:25.210Z,99042.00
2022-10-09T08:57:54.428Z,99027.06
2022-10-09T09:00:24.162Z,99026.06
2022-10-09T09:03:14.195Z,99019.78
2022-10-09T09:05:51.332Z,99016.03
2022-10-09T09:08:18.564Z,99023.00
2022-10-09T09:10:54.534Z,99019.94
2022-10-09T09:13:30.852Z,99022.03
2022-10-09T09:16:08.016Z,99026.94
2022-10-09T09:18:45.543Z,99022.31
2022-10-09T09:21:26.606Z,99014.88
2022-10-09T09:23:53.918Z,99005.72
2022-10-09T09:26:22.966Z,99009.69
2022-10-09T09:28:55.049Z,99008.78
2022-10-09T09:31:37.148Z,99003.28
2022-10-09T09:34:06.235Z,99005.44
2022-10-09T09:36:44.652Z,99004.59
2022-10-09T09:40:02.390Z,99001.97
2022-10-09T09:42:18.369Z,99006.19
2022-10-09T09:45:09.205Z,98993.50
2022-10-09T09:47:49.853Z,98989.47
2022-10-09T09:50:46.999Z,98979.97
2022-10-09T09:53:26.388Z,98975.13
2022-10-09T09:55:54.490Z,98972.22
2022-10-09T09:58:22.632Z,98968.56
2022-10-09T10:00:58.360Z,98965.38
2022-10-09T10:03:26.169Z,98969.00
2022-10-09T10:05:53.630Z,98954.88
2022-10-09T10:08:20.890Z,98954.09
2022-10-09T10:10:49.149Z,98956.19
2022-10-09T10:13:18.992Z,98949.63
2022-10-09T10:15:55.122Z,98945.91
2022-10-09T10:18:24.963Z,98944.34
2022-10-09T10:21:04.766Z,98948.56
2022-10-09T10:23:44.639Z,98946.47
2022-10-09T10:26:34.749Z,98925.22
2022-10-09T10:29:12.068Z,98934.28
2022-10-09T10:32:13.324Z,98938.69
2022-10-09T10:34:43.335Z,98927.97
2022-10-09T10:37:36.088Z,98917.34
2022-10-09T10:40:17.409Z,98908.69
2022-10-09T10:43:10.045Z,98920.06
2022-10-09T10:45:43.276Z,98899.97
2022-10-09T10:48:16.309Z,98908.78
2022-10-09T10:51:09.729Z,98904.31
2022-10-09T10:54:03.424Z,98904.34
2022-10-09T10:56:48.973Z,98893.41
2022-10-09T10:59:42.442Z,98907.72
2022-10-09T11:02:47.427Z,98895.44
2022-10-09T11:05:38.891Z,98895.28
2022-10-09T11:08:32.372Z,98887.41
2022-10-09T11:11:17.916Z,98886.38
2022-10-09T11:14:01.499Z,98879.09
2022-10-09T11:16:50.129Z,98885.38
2022-10-09T11:19:43.072Z,98881.84
2022-10-09T11:22:34.686Z,98869.00
2022-10-09T11:25:05.485Z,98877.16
2022-10-09T11:27:44.271Z,98866.94
2022-10-09T11:30:16.188Z,98868.63
2022-10-09T11:33:08.286Z,98862.06
2022-10-09T11:35:48.577Z,98856.03
2022-10-09T11:38:34.517Z,98846.25
2022-10-09T11:41:05.224Z,98842.50
2022-10-09T11:44:11.988Z,98841.09
2022-10-09T11:46:51.754Z,98842.44
2022-10-09T11:49:24.524Z,98841.75
2022-10-09T11:52:17.546Z,98815.41
2022-10-09T11:54:45.296Z,98829.47
2022-10-09T11:57:15.525Z,98818.78
2022-10-09T11:59:43.187Z,98803.84
2022-10-09T12:02:25.919Z,98810.63
2022-10-09T12:04:55.208Z,98806.53
2022-10-09T12:10:31.736Z,98784.75
2022-10-09T12:13:08.305Z,98786.38
2022-10-09T12:15:55.338Z,98777.22
2022-10-09T12:18:41.050Z,98780.63
2022-10-09T12:21:18.966Z,98773.72
2022-10-09T12:23:47.444Z,98776.00
2022-10-09T12:26:15.272Z,98769.53
2022-10-09T12:28:49.920Z,98761.06
2022-10-09T12:31:32.446Z,98756.50
2022-10-09T12:34:17.252Z,98757.03
2022-10-09T12:36:44.593Z,98750.44
2022-10-09T12:39:24.278Z,98736.13
2022-10-09T12:41:56.350Z,98740.13
2022-10-09T12:44:36.864Z,98748.19
2022-10-09T12:47:13.227Z,98741.25
2022-10-09T12:49:59.914Z,98742.91
2022-10-09T12:52:27.618Z,98745.19
2022-10-09T12:54:55.259Z,98738.47
2022-10-09T12:57:26.861Z,98732.72
2022-10-09T12:59:55.096Z,98733.16
2022-10-09T13:02:22.725Z,98722.78
2022-10-09T13:04:59.501Z,98722.78
2022-10-09T13:07:28.768Z,98725.66
2022-10-09T13:10:20.765Z,98716.94
2022-10-09T13:12:53.439Z,98706.13
2022-10-09T13:15:32.007Z,98706.41
2022-10-09T13:17:59.655Z,98708.19
2022-10-09T13:20:32.183Z,98697.53
2022-10-09T13:23:01.489Z,98709.59
2022-10-09T13:25:45.722Z,98699.31
2022-10-09T13:28:19.615Z,98704.09
2022-10-09T13:30:47.480Z,98693.84
2022-10-09T13:33:16.168Z,98711.25
2022-10-09T13:35:43.572Z,98708.66
2022-10-09T13:38:15.713Z,98696.56
2022-10-09T13:40:43.760Z,98703.47
2022-10-09T13:43:20.737Z,98707.13
2022-10-09T13:45:48.255Z,98703.25
2022-10-09T13:48:15.640Z,98701.44
2022-10-09T13:50:42.950Z,98697.06
2022-10-09T13:53:10.301Z,98697.16
2022-10-09T13:55:37.932Z,98692.59
2022-10-09T13:58:05.272Z,98689.28
2022-10-09T14:00:32.760Z,98681.84
2022-10-09T14:03:00.187Z,98669.28
2022-10-09T14:05:27.581Z,98671.41
2022-10-09T14:07:55.386Z,98674.47
2022-10-09T14:10:24.000Z,98661.66
2022-10-09T14:12:52.066Z,98672.16
2022-10-09T14:15:19.526Z,98655.78
2022-10-09T14:17:47.257Z,98658.28
2022-10-09T14:20:14.911Z,98654.47
2022-10-09T14:22:42.245Z,98652.25
2022-10-09T14:25:10.402Z,98642.81
2022-10-09T14:27:40.306Z,98644.56
2022-10-09T14:30:10.879Z,98641.44
2022-10-09T14:32:38.189Z,98636.72
2022-10-09T14:35:05.817Z,98633.91
2022-10-09T14:37:41.735Z,98631.41
2022-10-09T14:40:10.732Z,98634.47
2022-10-09T14:42:38.855Z,98630.44
2022-10-09T14:45:06.725Z,98625.06
2022-10-09T14:47:34.216Z,98613.69
2022-10-09T14:50:01.558Z,98610.91
2022-10-09T14:52:28.902Z,98617.22
2022-10-09T14:54:56.216Z,98612.44
2022-10-09T14:57:23.560Z,98604.47
2022-10-09T14:59:50.875Z,98604.53
2022-10-09T15:02:18.544Z,98602.22
2022-10-09T15:04:46.155Z,98603.28
2022-10-09T15:07:13.462Z,98603.38
2022-10-09T15:09:40.865Z,98608.53
2022-10-09T15:12:08.224Z,98605.25
2022-10-09T15:14:35.539Z,98601.53
2022-10-09T15:17:02.905Z,98597.34
2022-10-09T15:19:30.285Z,98598.13
2022-10-09T15:21:57.582Z,98595.00
2022-10-09T15:24:24.995Z,98597.03
2022-10-09T15:26:52.611Z,98592.31
2022-10-09T15:29:20.046Z,98593.91
2022-10-09T15:31:49.622Z,98585.63
2022-10-09T15:34:18.960Z,98585.94
2022-10-09T15:36:46.818Z,98576.44
2022-10-09T15:39:14.801Z,98583.06
2022-10-09T15:41:43.198Z,98585.19
2022-10-09T15:44:18.888Z,98578.47
2022-10-09T15:46:47.489Z,98576.69
2022-10-09T15:49:14.844Z,98571.94
2022-10-09T15:51:42.202Z,98568.13
2022-10-09T15:54:10.661Z,98566.22
2022-10-09T15:56:40.241Z,98572.50
2022-10-09T15:59:10.066Z,98570.47
2022-10-09T16:01:37.397Z,98565.19
2022-10-09T16:04:04.805Z,98558.91
2022-10-09T16:06:32.055Z,98560.88
2022-10-09T16:08:59.741Z,98561.78
2022-10-09T16:11:27.515Z,98564.19
2022-10-09T16:13:55.500Z,98557.47
2022-10-09T16:16:24.916Z,98564.25
2022-10-09T16:18:53.236Z,98562.31
2022-10-09T16:21:29.995Z,98562.47
2022-10-09T16:23:59.429Z,98559.72
2022-10-09T16:26:28.773Z,98554.22
2022-10-09T16:28:56.177Z,98554.66
2022-10-09T16:31:30.158Z,98547.69
2022-10-09T16:33:58.116Z,98548.94
2022-10-09T16:36:25.503Z,98539.19
2022-10-09T16:38:53.007Z,98547.31
2022-10-09T16:41:22.134Z,98553.63
2022-10-09T16:43:51.838Z,98555.72
2022-10-09T16:46:22.173Z,98554.06
2022-10-09T16:48:51.585Z,98558.69
2022-10-09T16:51:21.746Z,98560.91
2022-10-09T16:53:53.556Z,98564.81
2022-10-09T16:56:23.253Z,98559.22
2022-10-09T16:58:55.562Z,98560.47
2022-10-09T17:01:23.501Z,98566.88
2022-10-09T17:03:50.938Z,98564.22
2022-10-09T17:06:25.005Z,98560.81
2022-10-09T17:08:54.081Z,98571.25
2022-10-09T17:11:22.116Z,98567.06
2022-10-09T17:13:49.801Z,98575.47
2022-10-09T17:16:20.289Z,98568.81
2022-10-09T17:18:48.281Z,98574.13
2022-10-09T17:21:17.481Z,98577.13
2022-10-09T17:23:45.687Z,98568.97
2022-10-09T17:26:18.965Z,98566.69
2022-10-09T17:28:47.052Z,98570.72
2022-10-09T17:31:17.283Z,98567.63
2022-10-09T17:33:46.207Z,98563.16
2022-10-09T17:36:16.186Z,98568.72
2022-10-09T17:38:43.898Z,98570.53
2022-10-09T17:41:15.278Z,98570.22
2022-10-09T17:43:43.056Z,98564.91
2022-10-09T17:46:10.576Z,98569.91
2022-10-09T17:48:44.075Z,98560.66
2022-10-09T17:51:18.967Z,98568.41
2022-10-09T17:53:47.114Z,98560.25
2022-10-09T17:56:15.402Z,98561.81
2022-10-09T17:58:44.720Z,98564.72
2022-10-09T18:01:12.633Z,98563.03
2022-10-09T18:03:40.372Z,98560.75
2022-10-09T18:06:14.554Z,98558.75
2022-10-09T18:08:42.231Z,98560.00
2022-10-09T18:11:16.992Z,98557.59
2022-10-09T18:13:44.886Z,98549.44
2022-10-09T18:16:15.151Z,98548.41
2022-10-09T18:18:42.789Z,98547.47
2022-10-09T18:21:12.704Z,98538.72
2022-10-09T18:23:40.600Z,98548.69
2022-10-09T18:26:09.531Z,98545.09
2022-10-09T18:28:37.136Z,98544.19
2022-10-09T18:31:08.950Z,98543.34
2022-10-09T18:33:36.744Z,98542.38
2022-10-09T18:36:10.095Z,98543.72
2022-10-09T18:38:37.397Z,98537.59
2022-10-09T18:41:06.820Z,98541.44
2022-10-09T18:43:34.134Z,98534.06
2022-10-09T18:46:01.523Z,98531.78
2022-10-09T18:48:30.910Z,98534.28
2022-10-09T18:50:58.505Z,98529.94
2022-10-09T18:53:25.987Z,98531.88
2022-10-09T18:55:53.362Z,98526.00
2022-10-09T18:58:21.962Z,98528.28
2022-10-09T19:00:49.317Z,98519.84
2022-10-09T19:03:16.734Z,98523.72
2022-10-09T19:05:44.918Z,98522.53
2022-10-09T19:08:12.249Z,98524.63
2022-10-09T19:10:39.599Z,98518.59
2022-10-09T19:13:06.975Z,98518.00
2022-10-09T19:15:34.439Z,98511.88
2022-10-09T19:18:01.917Z,98510.91
2022-10-09T19:20:29.400Z,98518.50
2022-10-09T19:22:56.910Z,98512.47
2022-10-09T19:25:24.366Z,98512.84
2022-10-09T19:27:52.305Z,98510.78
2022-10-09T19:30:20.395Z,98512.59
2022-10-09T19:32:48.068Z,98520.53
2022-10-09T19:35:15.908Z,98522.81
2022-10-09T19:37:43.204Z,98522.44
2022-10-09T19:40:10.571Z,98521.69
2022-10-09T19:42:37.893Z,98516.22
2022-10-09T19:45:05.525Z,98514.81
2022-10-09T19:47:32.915Z,98511.34
2022-10-09T19:50:00.333Z,98514.34
2022-10-09T19:52:27.728Z,98515.19
2022-10-09T19:54:55.172Z,98514.69
2022-10-09T19:57:22.552Z,98511.69
2022-10-09T19:59:49.904Z,98502.34
2022-10-09T20:02:17.285Z,98507.66
2022-10-09T20:04:47.472Z,98505.03
2022-10-09T20:07:14.758Z,98508.16
2022-10-09T20:09:42.102Z,98499.75
2022-10-09T20:12:10.399Z,98500.78
2022-10-09T20:14:37.689Z,98512.34
2022-10-09T20:17:05.113Z,98504.13
2022-10-09T20:19:32.442Z,98506.19
2022-10-09T20:21:59.817Z,98505.44
2022-10-09T20:24:27.412Z,98496.56
2022-10-09T20:26:54.767Z,98499.78
2022-10-09T20:29:22.569Z,98495.72
2022-10-09T20:31:50.107Z,98498.16
2022-10-09T20:34:17.423Z,98499.53
2022-10-09T20:36:44.784Z,98501.50
2022-10-09T20:39:13.893Z,98494.72
2022-10-09T20:41:42.989Z,98487.97
2022-10-09T20:44:12.142Z,98498.69
2022-10-09T20:46:40.541Z,98500.19
2022-10-09T20:49:13.114Z,98490.44
2022-10-09T20:51:41.176Z,98494.09
2022-10-09T20:54:10.703Z,98495.16
2022-10-09T20:56:38.364Z,98496.56
2022-10-09T20:59:05.690Z,98496.75
2022-10-09T21:01:33.148Z,98492.75
2022-10-09T21:04:00.582Z,98493.19
2022-10-09T21:06:28.056Z,98488.66
2022-10-09T21:08:56.110Z,98495.81
2022-10-09T21:11:23.766Z,98502.34
2022-10-09T21:13:51.113Z,98508.66
2022-10-09T21:16:21.868Z,98495.09
2022-10-09T21:19:00.089Z,98498.88
2022-10-09T21:21:28.210Z,98503.38
2022-10-09T21:23:57.461Z,98506.09
2022-10-09T21:26:25.955Z,98508.72
2022-10-09T21:28:59.036Z,98502.63
2022-10-09T21:31:29.141Z,98503.59
2022-10-09T21:33:57.426Z,98508.91
2022-10-09T21:36:32.762Z,98505.75
2022-10-09T21:39:00.101Z,98507.97
2022-10-09T21:41:27.698Z,98509.63
2022-10-09T21:43:55.080Z,98504.22
2022-10-09T21:46:22.789Z,98510.03
2022-10-09T21:48:50.199Z,98501.84
2022-10-09T21:51:17.602Z,98501.72
2022-10-09T21:53:45.169Z,98498.06
2022-10-09T21:56:12.711Z,98499.34
2022-10-09T21:58:41.966Z,98502.16
2022-10-09T22:01:11.763Z,98503.44
2022-10-09T22:03:39.118Z,98502.88
2022-10-09T22:06:18.875Z,98499.94
2022-10-09T22:08:47.916Z,98500.47
2022-10-09T22:11:16.094Z,98493.75
2022-10-09T22:13:43.507Z,98502.75
2022-10-09T22:16:13.023Z,98495.28
2022-10-09T22:18:40.633Z,98492.66
2022-10-09T22:21:10.419Z,98488.22
2022-10-09T22:23:37.792Z,98492.16
2022-10-09T22:26:08.233Z,98494.22
2022-10-09T22:28:35.712Z,98498.41
2022-10-09T22:31:07.655Z,98482.16
2022-10-09T22:33:36.022Z,98480.63
2022-10-09T22:36:07.682Z,98471.66
2022-10-09T22:38:35.355Z,98473.44
2022-10-09T22:41:11.413Z,98471.22
2022-10-09T22:43:39.753Z,98462.00
2022-10-09T22:46:15.333Z,98467.16
2022-10-09T22:48:43.278Z,98462.28
2022-10-09T22:51:13.416Z,98454.41
2022-10-09T22:53:41.784Z,98455.16
2022-10-09T22:56:14.538Z,98449.44
2022-10-09T22:58:42.196Z,98452.84
2022-10-09T23:01:15.887Z,98447.81
2022-10-09T23:03:43.577Z,98441.13
2022-10-09T23:06:17.199Z,98448.22
2022-10-09T23:08:46.607Z,98450.75
2022-10-09T23:11:14.668Z,98438.94
2022-10-09T23:13:42.210Z,98443.53
2022-10-09T23:16:11.886Z,98443.63
2022-10-09T23:18:39.980Z,98444.38
2022-10-09T23:21:10.039Z,98448.31
2022-10-09T23:23:37.474Z,98442.44
2022-10-09T23:26:09.873Z,98439.91
2022-10-09T23:28:37.658Z,98436.44
2022-10-09T23:31:07.232Z,98440.59
2022-10-09T23:33:34.710Z,98434.09
2022-10-09T23:36:06.109Z,98436.50
2022-10-09T23:38:33.445Z,98435.47
2022-10-09T23:41:05.619Z,98438.13
2022-10-09T23:43:34.721Z,98442.06
2022-10-09T23:46:03.938Z,98443.50
2022-10-09T23:48:31.245Z,98439.75
2022-10-09T23:50:59.197Z,98439.81
2022-10-09T23:53:27.082Z,98423.75
2022-10-09T23:55:54.937Z,98433.25
2022-10-09T23:58:22.853Z,98429.50
